sensor_id;sensor_type;location;lat;lon;timestamp;pressure;altitude;pressure_sealevel;temperature
53667;BMP280;39568;51.026;5.468;2023-01-16T00:01:04;98913.38;;;20.36
53667;BMP280;39568;51.026;5.468;2023-01-16T00:03:31;98911.28;;;20.35
53667;BMP280;39568;51.026;5.468;2023-01-16T00:05:58;98912.00;;;20.35
53667;BMP280;39568;51.026;5.468;2023-01-16T00:08:26;98906.59;;;20.35
53667;BMP280;39568;51.026;5.468;2023-01-16T00:10:52;98898.41;;;20.33
53667;BMP280;39568;51.026;5.468;2023-01-16T00:13:19;98886.88;;;20.33
53667;BMP280;39568;51.026;5.468;2023-01-16T00:15:47;98893.00;;;20.33
53667;BMP280;39568;51.026;5.468;2023-01-16T00:18:14;98890.28;;;20.33
53667;BMP280;39568;51.026;5.468;2023-01-16T00:20:41;98882.19;;;20.33
53667;BMP280;39568;51.026;5.468;2023-01-16T00:23:09;98875.38;;;20.32
53667;BMP280;39568;51.026;5.468;2023-01-16T00:25:39;98878.06;;;20.32
53667;BMP280;39568;51.026;5.468;2023-01-16T00:28:06;98874.00;;;20.31
53667;BMP280;39568;51.026;5.468;2023-01-16T00:30:33;98865.19;;;20.31
53667;BMP280;39568;51.026;5.468;2023-01-16T00:33:00;98870.59;;;20.31
53667;BMP280;39568;51.026;5.468;2023-01-16T00:35:27;98863.09;;;20.29
53667;BMP280;39568;51.026;5.468;2023-01-16T00:37:54;98848.88;;;20.29
53667;BMP280;39568;51.026;5.468;2023-01-16T00:40:21;98850.88;;;20.28
53667;BMP280;39568;51.026;5.468;2023-01-16T00:42:49;98849.59;;;20.29
53667;BMP280;39568;51.026;5.468;2023-01-16T00:45:16;98842.78;;;20.28
53667;BMP280;39568;51.026;5.468;2023-01-16T00:47:43;98837.38;;;20.28
53667;BMP280;39568;51.026;5.468;2023-01-16T00:50:09;98827.88;;;20.27
53667;BMP280;39568;51.026;5.468;2023-01-16T00:52:36;98830.59;;;20.27
53667;BMP280;39568;51.026;5.468;2023-01-16T00:55:03;98825.19;;;20.27
53667;BMP280;39568;51.026;5.468;2023-01-16T00:57:30;98823.78;;;20.26
53667;BMP280;39568;51.026;5.468;2023-01-16T00:59:58;98812.38;;;20.28
53667;BMP280;39568;51.026;5.468;2023-01-16T01:02:25;98811.69;;;20.27
53667;BMP280;39568;51.026;5.468;2023-01-16T01:04:51;98803.59;;;20.27
53667;BMP280;39568;51.026;5.468;2023-01-16T01:07:18;98794.78;;;20.27
53667;BMP280;39568;51.026;5.468;2023-01-16T01:09:45;98790.69;;;20.26
53667;BMP280;39568;51.026;5.468;2023-01-16T01:12:11;98791.38;;;20.26
53667;BMP280;39568;51.026;5.468;2023-01-16T01:14:38;98785.97;;;20.26
53667;BMP280;39568;51.026;5.468;2023-01-16T01:17:06;98762.97;;;20.25
53667;BMP280;39568;51.026;5.468;2023-01-16T01:19:33;98754.88;;;20.25
53667;BMP280;39568;51.026;5.468;2023-01-16T01:22:00;98762.28;;;20.25
53667;BMP280;39568;51.026;5.468;2023-01-16T01:24:27;98744.66;;;20.24
53667;BMP280;39568;51.026;5.468;2023-01-16T01:26:53;98741.97;;;20.24
53667;BMP280;39568;51.026;5.468;2023-01-16T01:29:20;98740.69;;;20.25
53667;BMP280;39568;51.026;5.468;2023-01-16T01:31:47;98727.78;;;20.23
53667;BMP280;39568;51.026;5.468;2023-01-16T01:34:15;98724.47;;;20.25
53667;BMP280;39568;51.026;5.468;2023-01-16T01:36:42;98719.69;;;20.23
53667;BMP280;39568;51.026;5.468;2023-01-16T01:39:08;98716.97;;;20.23
53667;BMP280;39568;51.026;5.468;2023-01-16T01:41:35;98719.69;;;20.23
53667;BMP280;39568;51.026;5.468;2023-01-16T01:44:02;98716.97;;;20.23
53667;BMP280;39568;51.026;5.468;2023-01-16T01:46:30;98702.78;;;20.23
53667;BMP280;39568;51.026;5.468;2023-01-16T01:49:06;98690.66;;;20.24
53667;BMP280;39568;51.026;5.468;2023-01-16T01:51:38;98683.16;;;20.22
53667;BMP280;39568;51.026;5.468;2023-01-16T01:54:09;98677.09;;;20.22
53667;BMP280;39568;51.026;5.468;2023-01-16T01:56:39;98671.00;;;20.21
53667;BMP280;39568;51.026;5.468;2023-01-16T01:59:12;98658.19;;;20.22
53667;BMP280;39568;51.026;5.468;2023-01-16T02:01:40;98655.38;;;20.20
53667;BMP280;39568;51.026;5.468;2023-01-16T02:04:10;98653.38;;;20.20
53667;BMP280;39568;51.026;5.468;2023-01-16T02:06:43;98642.56;;;20.20
53667;BMP280;39568;51.026;5.468;2023-01-16T02:09:12;98631.78;;;20.20
53667;BMP280;39568;51.026;5.468;2023-01-16T02:11:43;98622.97;;;20.20
53667;BMP280;39568;51.026;5.468;2023-01-16T02:14:13;98623.59;;;20.18
53667;BMP280;39568;51.026;5.468;2023-01-16T02:16:41;98614.19;;;20.19
53667;BMP280;39568;51.026;5.468;2023-01-16T02:19:33;98602.69;;;20.19
53667;BMP280;39568;51.026;5.468;2023-01-16T02:31:31;98548.63;;;20.17
53667;BMP280;39568;51.026;5.468;2023-01-16T02:34:15;98535.13;;;20.17
53667;BMP280;39568;51.026;5.468;2023-01-16T02:36:52;98527.59;;;20.15
53667;BMP280;39568;51.026;5.468;2023-01-16T02:39:32;98529.63;;;20.14
53667;BMP280;39568;51.026;5.468;2023-01-16T02:42:08;98521.53;;;20.14
53667;BMP280;39568;51.026;5.468;2023-01-16T02:44:43;98516.81;;;20.15
53667;BMP280;39568;51.026;5.468;2023-01-16T02:47:19;98511.41;;;20.15
53667;BMP280;39568;51.026;5.468;2023-01-16T02:49:53;98504.66;;;20.14
53667;BMP280;39568;51.026;5.468;2023-01-16T02:52:30;98487.75;;;20.13
53667;BMP280;39568;51.026;5.468;2023-01-16T02:55:01;98484.34;;;20.13
53667;BMP280;39568;51.026;5.468;2023-01-16T02:57:33;98468.16;;;20.13
53667;BMP280;39568;51.026;5.468;2023-01-16T03:00:03;98473.56;;;20.13
53667;BMP280;39568;51.026;5.468;2023-01-16T03:02:32;98456.56;;;20.10
53667;BMP280;39568;51.026;5.468;2023-01-16T03:04:59;98453.94;;;20.12
53667;BMP280;39568;51.026;5.468;2023-01-16T03:07:52;98447.84;;;20.12
53667;BMP280;39568;51.026;5.468;2023-01-16T03:10:49;98434.34;;;20.12
53667;BMP280;39568;51.026;5.468;2023-01-16T03:13:27;98426.97;;;20.12
53667;BMP280;39568;51.026;5.468;2023-01-16T03:16:02;98414.75;;;20.11
53667;BMP280;39568;51.026;5.468;2023-01-16T03:18:38;98406.66;;;20.11
53667;BMP280;39568;51.026;5.468;2023-01-16T03:21:10;98395.88;;;20.11
53667;BMP280;39568;51.026;5.468;2023-01-16T03:23:49;98393.09;;;20.09
53667;BMP280;39568;51.026;5.468;2023-01-16T03:26:21;98380.31;;;20.10
53667;BMP280;39568;51.026;5.468;2023-01-16T03:28:57;98370.81;;;20.09
53667;BMP280;39568;51.026;5.468;2023-01-16T03:31:29;98358.72;;;20.10
53667;BMP280;39568;51.026;5.468;2023-01-16T03:34:07;98357.31;;;20.09
53667;BMP280;39568;51.026;5.468;2023-01-16T03:36:41;98343.81;;;20.09
53667;BMP280;39568;51.026;5.468;2023-01-16T03:39:10;98326.22;;;20.08
53667;BMP280;39568;51.026;5.468;2023-01-16T03:41:40;98318.81;;;20.08
53667;BMP280;39568;51.026;5.468;2023-01-16T03:44:11;98306.03;;;20.09
53667;BMP280;39568;51.026;5.468;2023-01-16T03:46:43;98293.81;;;20.08
53667;BMP280;39568;51.026;5.468;2023-01-16T03:49:16;98302.63;;;20.08
53667;BMP280;39568;51.026;5.468;2023-01-16T03:51:45;98291.13;;;20.08
53667;BMP280;39568;51.026;5.468;2023-01-16T03:54:25;98287.72;;;20.07
53667;BMP280;39568;51.026;5.468;2023-01-16T03:56:59;98274.22;;;20.07
53667;BMP280;39568;51.026;5.468;2023-01-16T03:59:30;98267.44;;;20.06
53667;BMP280;39568;51.026;5.468;2023-01-16T04:01:59;98262.03;;;20.06
53667;BMP280;39568;51.026;5.468;2023-01-16T04:04:31;98257.34;;;20.07
53667;BMP280;39568;51.026;5.468;2023-01-16T04:07:04;98243.84;;;20.07
53667;BMP280;39568;51.026;5.468;2023-01-16T04:09:40;98238.44;;;20.07
53667;BMP280;39568;51.026;5.468;2023-01-16T04:12:08;98229.00;;;20.06
53667;BMP280;39568;51.026;5.468;2023-01-16T04:14:36;98217.50;;;20.05
53667;BMP280;39568;51.026;5.468;2023-01-16T04:17:04;98200.59;;;20.05
53667;BMP280;39568;51.026;5.468;2023-01-16T04:19:33;98190.50;;;20.05
53667;BMP280;39568;51.026;5.468;2023-01-16T04:22:05;98184.41;;;20.05
53667;BMP280;39568;51.026;5.468;2023-01-16T04:24:33;98179.03;;;20.05
53667;BMP280;39568;51.026;5.468;2023-01-16T04:27:00;98168.81;;;20.03
53667;BMP280;39568;51.026;5.468;2023-01-16T04:29:27;98152.72;;;20.05
53667;BMP280;39568;51.026;5.468;2023-01-16T04:31:53;98152.03;;;20.05
53667;BMP280;39568;51.026;5.468;2023-01-16T04:34:20;98134.44;;;20.04
53667;BMP280;39568;51.026;5.468;2023-01-16T04:36:48;98126.34;;;20.04
53667;BMP280;39568;51.026;5.468;2023-01-16T04:39:15;98110.84;;;20.04
53667;BMP280;39568;51.026;5.468;2023-01-16T04:41:41;98101.34;;;20.03
53667;BMP280;39568;51.026;5.468;2023-01-16T04:44:09;98095.97;;;20.03
53667;BMP280;39568;51.026;5.468;2023-01-16T04:46:36;98083.75;;;20.02
53667;BMP280;39568;51.026;5.468;2023-01-16T04:49:04;98072.38;;;20.04
53667;BMP280;39568;51.026;5.468;2023-01-16T04:51:31;98061.53;;;20.02
53667;BMP280;39568;51.026;5.468;2023-01-16T04:53:59;98048.03;;;20.02
53667;BMP280;39568;51.026;5.468;2023-01-16T04:56:26;98039.25;;;20.01
53667;BMP280;39568;51.026;5.468;2023-01-16T04:58:52;98034.53;;;20.02
53667;BMP280;39568;51.026;5.468;2023-01-16T05:01:20;98023.03;;;20.01
53667;BMP280;39568;51.026;5.468;2023-01-16T05:03:46;98006.16;;;20.01
53667;BMP280;39568;51.026;5.468;2023-01-16T05:06:13;97999.34;;;20.00
53667;BMP280;39568;51.026;5.468;2023-01-16T05:08:40;97984.56;;;20.01
53667;BMP280;39568;51.026;5.468;2023-01-16T05:11:08;97976.47;;;20.01
53667;BMP280;39568;51.026;5.468;2023-01-16T05:13:35;97967.69;;;20.00
53667;BMP280;39568;51.026;5.468;2023-01-16T05:16:02;97962.28;;;20.00
53667;BMP280;39568;51.026;5.468;2023-01-16T05:18:29;97961.59;;;20.00
53667;BMP280;39568;51.026;5.468;2023-01-16T05:20:55;97950.78;;;20.00
53667;BMP280;39568;51.026;5.468;2023-01-16T05:23:22;97938.59;;;19.99
53667;BMP280;39568;51.026;5.468;2023-01-16T05:25:49;97934.59;;;20.00
53667;BMP280;39568;51.026;5.468;2023-01-16T05:28:17;97923.81;;;20.00
53667;BMP280;39568;51.026;5.468;2023-01-16T05:30:44;97914.31;;;19.99
53667;BMP280;39568;51.026;5.468;2023-01-16T05:33:10;97904.84;;;19.98
53667;BMP280;39568;51.026;5.468;2023-01-16T05:35:37;97886.66;;;19.98
53667;BMP280;39568;51.026;5.468;2023-01-16T05:38:04;97892.06;;;19.98
53667;BMP280;39568;51.026;5.468;2023-01-16T05:40:31;97879.88;;;19.97
53667;BMP280;39568;51.026;5.468;2023-01-16T05:42:57;97875.16;;;19.98
53667;BMP280;39568;51.026;5.468;2023-01-16T05:45:25;97863.69;;;19.97
53667;BMP280;39568;51.026;5.468;2023-01-16T05:47:52;97848.81;;;19.96
53667;BMP280;39568;51.026;5.468;2023-01-16T05:50:19;97846.13;;;19.96
53667;BMP280;39568;51.026;5.468;2023-01-16T05:52:46;97838.72;;;19.97
53667;BMP280;39568;51.026;5.468;2023-01-16T05:55:12;97833.31;;;19.97
53667;BMP280;39568;51.026;5.468;2023-01-16T05:57:39;97829.22;;;19.96
53667;BMP280;39568;51.026;5.468;2023-01-16T06:00:07;97812.34;;;19.95
53667;BMP280;39568;51.026;5.468;2023-01-16T06:02:35;97810.34;;;19.96
53667;BMP280;39568;51.026;5.468;2023-01-16T06:05:02;97796.84;;;19.96
53667;BMP280;39568;51.026;5.468;2023-01-16T06:07:29;97786.06;;;19.96
53667;BMP280;39568;51.026;5.468;2023-01-16T06:09:55;97786.75;;;19.96
53667;BMP280;39568;51.026;5.468;2023-01-16T06:12:22;97774.56;;;19.95
53667;BMP280;39568;51.026;5.468;2023-01-16T06:14:50;97767.31;;;20.00
53667;BMP280;39568;51.026;5.468;2023-01-16T06:17:17;97768.72;;;20.01
53667;BMP280;39568;51.026;5.468;2023-01-16T06:19:45;97762.06;;;20.04
53667;BMP280;39568;51.026;5.468;2023-01-16T06:22:12;97741.22;;;20.06
53667;BMP280;39568;51.026;5.468;2023-01-16T06:24:39;97732.59;;;20.10
53667;BMP280;39568;51.026;5.468;2023-01-16T06:27:06;97726.53;;;20.11
53667;BMP280;39568;51.026;5.468;2023-01-16T06:29:33;97708.44;;;20.14
53667;BMP280;39568;51.026;5.468;2023-01-16T06:31:59;97707.19;;;20.17
53667;BMP280;39568;51.026;5.468;2023-01-16T06:34:26;97699.13;;;20.19
53667;BMP280;39568;51.026;5.468;2023-01-16T06:36:54;97692.47;;;20.22
53667;BMP280;39568;51.026;5.468;2023-01-16T06:39:21;97675.06;;;20.25
53667;BMP280;39568;51.026;5.468;2023-01-16T06:41:48;97672.47;;;20.29
53667;BMP280;39568;51.026;5.468;2023-01-16T06:44:14;97657.66;;;20.30
53667;BMP280;39568;51.026;5.468;2023-01-16T06:46:41;97655.72;;;20.33
53667;BMP280;39568;51.026;5.468;2023-01-16T06:49:09;97651.00;;;20.33
53667;BMP280;39568;51.026;5.468;2023-01-16T06:51:35;97655.13;;;20.36
53667;BMP280;39568;51.026;5.468;2023-01-16T06:54:03;97647.78;;;20.39
53667;BMP280;39568;51.026;5.468;2023-01-16T06:56:30;97632.28;;;20.39
53667;BMP280;39568;51.026;5.468;2023-01-16T06:58:57;97630.97;;;20.40
53667;BMP280;39568;51.026;5.468;2023-01-16T07:01:23;97614.66;;;20.36
53667;BMP280;39568;51.026;5.468;2023-01-16T07:03:50;97601.53;;;20.27
53667;BMP280;39568;51.026;5.468;2023-01-16T07:06:17;97598.03;;;20.22
53667;BMP280;39568;51.026;5.468;2023-01-16T07:08:43;97588.63;;;20.23
53667;BMP280;39568;51.026;5.468;2023-01-16T07:11:12;97578.59;;;20.26
53667;BMP280;39568;51.026;5.468;2023-01-16T07:13:38;97579.31;;;20.28
53667;BMP280;39568;51.026;5.468;2023-01-16T07:16:06;97574.66;;;20.31
53667;BMP280;39568;51.026;5.468;2023-01-16T07:18:50;97558.53;;;20.33
53667;BMP280;39568;51.026;5.468;2023-01-16T07:21:34;97545.09;;;20.35
53667;BMP280;39568;51.026;5.468;2023-01-16T07:24:21;97552.56;;;20.36
53667;BMP280;39568;51.026;5.468;2023-01-16T07:26:52;97539.81;;;20.39
53667;BMP280;39568;51.026;5.468;2023-01-16T07:29:22;97530.41;;;20.40
53667;BMP280;39568;51.026;5.468;2023-01-16T07:31:49;97517.63;;;20.42
53667;BMP280;39568;51.026;5.468;2023-01-16T07:34:16;97512.31;;;20.44
53667;BMP280;39568;51.026;5.468;2023-01-16T07:36:42;97506.94;;;20.46
53667;BMP280;39568;51.026;5.468;2023-01-16T07:39:09;97512.44;;;20.48
53667;BMP280;39568;51.026;5.468;2023-01-16T07:41:36;97508.44;;;20.51
53667;BMP280;39568;51.026;5.468;2023-01-16T07:44:04;97505.13;;;20.53
53667;BMP280;39568;51.026;5.468;2023-01-16T07:46:31;97493.06;;;20.56
53667;BMP280;39568;51.026;5.468;2023-01-16T07:48:58;97488.91;;;20.53
53667;BMP280;39568;51.026;5.468;2023-01-16T07:51:25;97477.38;;;20.50
53667;BMP280;39568;51.026;5.468;2023-01-16T07:53:51;97481.47;;;20.51
53667;BMP280;39568;51.026;5.468;2023-01-16T07:56:18;97471.28;;;20.50
53667;BMP280;39568;51.026;5.468;2023-01-16T07:58:45;97471.97;;;20.50
53667;BMP280;39568;51.026;5.468;2023-01-16T08:01:13;97473.97;;;20.50
53667;BMP280;39568;51.026;5.468;2023-01-16T08:03:39;97463.88;;;20.50
53667;BMP280;39568;51.026;5.468;2023-01-16T08:06:07;97455.75;;;20.50
53667;BMP280;39568;51.026;5.468;2023-01-16T08:08:33;97451.13;;;20.53
53667;BMP280;39568;51.026;5.468;2023-01-16T08:11:00;97445.03;;;20.52
53667;BMP280;39568;51.026;5.468;2023-01-16T08:13:50;97445.72;;;20.53
53667;BMP280;39568;51.026;5.468;2023-01-16T08:16:18;97430.88;;;20.54
53667;BMP280;39568;51.026;5.468;2023-01-16T08:18:45;97428.94;;;20.56
53667;BMP280;39568;51.026;5.468;2023-01-16T08:21:15;97419.50;;;20.57
53667;BMP280;39568;51.026;5.468;2023-01-16T08:23:42;97416.19;;;20.59
53667;BMP280;39568;51.026;5.468;2023-01-16T08:26:09;97412.19;;;20.62
53667;BMP280;39568;51.026;5.468;2023-01-16T08:28:36;97416.97;;;20.63
53667;BMP280;39568;51.026;5.468;2023-01-16T08:31:03;97414.28;;;20.65
53667;BMP280;39568;51.026;5.468;2023-01-16T08:33:34;97400.19;;;20.67
53667;BMP280;39568;51.026;5.468;2023-01-16T08:36:01;97413.06;;;20.68
53667;BMP280;39568;51.026;5.468;2023-01-16T08:38:28;97406.28;;;20.69
53667;BMP280;39568;51.026;5.468;2023-01-16T08:40:55;97402.94;;;20.69
53667;BMP280;39568;51.026;5.468;2023-01-16T08:43:21;97411.78;;;20.71
53667;BMP280;39568;51.026;5.468;2023-01-16T08:46:14;97406.38;;;20.71
53667;BMP280;39568;51.026;5.468;2023-01-16T08:48:58;97403.69;;;20.71
53667;BMP280;39568;51.026;5.468;2023-01-16T08:51:43;97410.38;;;20.70
53667;BMP280;39568;51.026;5.468;2023-01-16T08:54:10;97392.78;;;20.69
53667;BMP280;39568;51.026;5.468;2023-01-16T08:56:36;97395.50;;;20.69
53667;BMP280;39568;51.026;5.468;2023-01-16T08:59:07;97391.47;;;20.68
53667;BMP280;39568;51.026;5.468;2023-01-16T09:01:34;97390.06;;;20.67
53667;BMP280;39568;51.026;5.468;2023-01-16T09:04:02;97388.69;;;20.66
53667;BMP280;39568;51.026;5.468;2023-01-16T09:06:29;97392.06;;;20.67
53667;BMP280;39568;51.026;5.468;2023-01-16T09:08:55;97379.19;;;20.65
53667;BMP280;39568;51.026;5.468;2023-01-16T09:11:22;97377.88;;;20.66
53667;BMP280;39568;51.026;5.468;2023-01-16T09:14:06;97368.38;;;20.65
53667;BMP280;39568;51.026;5.468;2023-01-16T09:16:33;97358.94;;;20.64
53667;BMP280;39568;51.026;5.468;2023-01-16T09:18:59;97355.56;;;20.64
53667;BMP280;39568;51.026;5.468;2023-01-16T09:21:27;97363.66;;;20.64
53667;BMP280;39568;51.026;5.468;2023-01-16T09:23:54;97358.25;;;20.64
53667;BMP280;39568;51.026;5.468;2023-01-16T09:26:21;97348.16;;;20.64
53667;BMP280;39568;51.026;5.468;2023-01-16T09:28:47;97344.78;;;20.66
53667;BMP280;39568;51.026;5.468;2023-01-16T09:31:15;97338.78;;;20.69
53667;BMP280;39568;51.026;5.468;2023-01-16T09:33:44;97335.50;;;20.73
53667;BMP280;39568;51.026;5.468;2023-01-16T09:36:12;97326.75;;;20.74
53667;BMP280;39568;51.026;5.468;2023-01-16T09:38:40;97326.84;;;20.76
53667;BMP280;39568;51.026;5.468;2023-01-16T09:41:10;97333.66;;;20.79
53667;BMP280;39568;51.026;5.468;2023-01-16T09:43:59;97325.56;;;20.81
53667;BMP280;39568;51.026;5.468;2023-01-16T09:46:27;97317.47;;;20.81
53667;BMP280;39568;51.026;5.468;2023-01-16T09:48:57;97320.25;;;20.83
53667;BMP280;39568;51.026;5.468;2023-01-16T09:51:27;97313.44;;;20.82
53667;BMP280;39568;51.026;5.468;2023-01-16T09:53:58;97318.22;;;20.84
53667;BMP280;39568;51.026;5.468;2023-01-16T09:56:45;97300.63;;;20.83
53667;BMP280;39568;51.026;5.468;2023-01-16T09:59:33;97299.31;;;20.84
53667;BMP280;39568;51.026;5.468;2023-01-16T10:02:18;97292.53;;;20.83
53667;BMP280;39568;51.026;5.468;2023-01-16T10:04:46;97301.34;;;20.83
53667;BMP280;39568;51.026;5.468;2023-01-16T10:07:42;97287.13;;;20.83
53667;BMP280;39568;51.026;5.468;2023-01-16T10:10:24;97281.03;;;20.82
53667;BMP280;39568;51.026;5.468;2023-01-16T10:13:01;97274.25;;;20.81
53667;BMP280;39568;51.026;5.468;2023-01-16T10:15:35;97264.13;;;20.82
53667;BMP280;39568;51.026;5.468;2023-01-16T10:18:16;97253.94;;;20.78
53667;BMP280;39568;51.026;5.468;2023-01-16T10:20:58;97250.59;;;20.80
53667;BMP280;39568;51.026;5.468;2023-01-16T10:23:42;97259.41;;;20.80
53667;BMP280;39568;51.026;5.468;2023-01-16T10:26:18;97249.22;;;20.79
53667;BMP280;39568;51.026;5.468;2023-01-16T10:28:54;97239.72;;;20.78
53667;BMP280;39568;51.026;5.468;2023-01-16T10:31:25;97236.66;;;20.62
53667;BMP280;39568;51.026;5.468;2023-01-16T10:33:54;97232.88;;;20.43
53667;BMP280;39568;51.026;5.468;2023-01-16T10:36:26;97221.69;;;20.27
53667;BMP280;39568;51.026;5.468;2023-01-16T10:38:55;97237.66;;;20.19
53667;BMP280;39568;51.026;5.468;2023-01-16T10:41:27;97220.69;;;20.14
53667;BMP280;39568;51.026;5.468;2023-01-16T10:44:29;97212.50;;;20.10
53667;BMP280;39568;51.026;5.468;2023-01-16T10:47:30;97204.97;;;20.07
53667;BMP280;39568;51.026;5.468;2023-01-16T10:50:15;97201.59;;;20.06
53667;BMP280;39568;51.026;5.468;2023-01-16T10:52:42;97202.28;;;20.07
53667;BMP280;39568;51.026;5.468;2023-01-16T10:55:10;97194.19;;;20.07
53667;BMP280;39568;51.026;5.468;2023-01-16T10:57:43;97202.34;;;20.09
53667;BMP280;39568;51.026;5.468;2023-01-16T11:00:16;97187.56;;;20.10
53667;BMP280;39568;51.026;5.468;2023-01-16T11:02:47;97189.59;;;20.11
53667;BMP280;39568;51.026;5.468;2023-01-16T11:05:26;97186.28;;;20.15
53667;BMP280;39568;51.026;5.468;2023-01-16T11:07:54;97171.63;;;20.22
53667;BMP280;39568;51.026;5.468;2023-01-16T11:10:22;97168.97;;;20.24
53667;BMP280;39568;51.026;5.468;2023-01-16T11:12:51;97171.63;;;20.22
53667;BMP280;39568;51.026;5.468;2023-01-16T11:15:35;97160.16;;;20.22
53667;BMP280;39568;51.026;5.468;2023-01-16T11:18:21;97151.31;;;20.19
53667;BMP280;39568;51.026;5.468;2023-01-16T11:20:55;97143.19;;;20.17
53667;BMP280;39568;51.026;5.468;2023-01-16T11:23:24;97130.41;;;20.18
53667;BMP280;39568;51.026;5.468;2023-01-16T11:25:53;97143.88;;;20.18
53667;BMP280;39568;51.026;5.468;2023-01-16T11:28:24;97116.22;;;20.17
53667;BMP280;39568;51.026;5.468;2023-01-16T11:30:54;97122.22;;;20.15
53667;BMP280;39568;51.026;5.468;2023-01-16T11:33:24;97112.03;;;20.12
53667;BMP280;39568;51.026;5.468;2023-01-16T11:35:54;97110.63;;;20.09
53667;BMP280;39568;51.026;5.468;2023-01-16T11:38:22;97109.25;;;20.08
53667;BMP280;39568;51.026;5.468;2023-01-16T11:40:50;97091.75;;;20.09
53667;BMP280;39568;51.026;5.468;2023-01-16T11:43:24;97092.38;;;20.07
53667;BMP280;39568;51.026;5.468;2023-01-16T11:46:31;97082.25;;;20.06
53667;BMP280;39568;51.026;5.468;2023-01-16T11:49:00;97081.66;;;20.11
53667;BMP280;39568;51.026;5.468;2023-01-16T11:51:29;97076.38;;;20.15
53667;BMP280;39568;51.026;5.468;2023-01-16T11:53:57;97074.44;;;20.20
53667;BMP280;39568;51.026;5.468;2023-01-16T11:57:05;97057.03;;;20.25
53667;BMP280;39568;51.026;5.468;2023-01-16T12:00:00;97063.13;;;20.26
53667;BMP280;39568;51.026;5.468;2023-01-16T12:02:46;97055.03;;;20.26
53667;BMP280;39568;51.026;5.468;2023-01-16T12:05:21;97038.09;;;20.23
53667;BMP280;39568;51.026;5.468;2023-01-16T12:08:20;97048.78;;;20.19
53667;BMP280;39568;51.026;5.468;2023-01-16T12:10:52;97031.22;;;20.18
53667;BMP280;39568;51.026;5.468;2023-01-16T12:13:29;97030.56;;;20.18
53667;BMP280;39568;51.026;5.468;2023-01-16T12:16:22;97018.31;;;20.12
53667;BMP280;39568;51.026;5.468;2023-01-16T12:19:04;97022.91;;;20.08
53667;BMP280;39568;51.026;5.468;2023-01-16T12:21:40;97012.72;;;20.04
53667;BMP280;39568;51.026;5.468;2023-01-16T12:24:27;97009.31;;;20.02
53667;BMP280;39568;51.026;5.468;2023-01-16T12:27:05;97007.88;;;19.99
53667;BMP280;39568;51.026;5.468;2023-01-16T12:29:44;97002.47;;;19.97
53667;BMP280;39568;51.026;5.468;2023-01-16T12:32:30;96999.69;;;19.95
53667;BMP280;39568;51.026;5.468;2023-01-16T12:35:08;96996.28;;;19.92
53667;BMP280;39568;51.026;5.468;2023-01-16T12:40:34;96986.09;;;19.89
53667;BMP280;39568;51.026;5.468;2023-01-16T12:43:13;96976.00;;;19.89
53667;BMP280;39568;51.026;5.468;2023-01-16T12:45:48;96974.75;;;19.94
53667;BMP280;39568;51.026;5.468;2023-01-16T12:48:37;96964.78;;;20.01
53667;BMP280;39568;51.026;5.468;2023-01-16T12:51:35;96956.16;;;20.08
53667;BMP280;39568;51.026;5.468;2023-01-16T12:54:36;96960.34;;;20.15
53667;BMP280;39568;51.026;5.468;2023-01-16T13:00:19;96957.19;;;20.25
53667;BMP280;39568;51.026;5.468;2023-01-16T13:02:53;96959.97;;;20.29
53667;BMP280;39568;51.026;5.468;2023-01-16T13:05:25;96943.16;;;20.33
53667;BMP280;39568;51.026;5.468;2023-01-16T13:07:56;96945.25;;;20.36
53667;BMP280;39568;51.026;5.468;2023-01-16T13:10:29;96943.97;;;20.39
53667;BMP280;39568;51.026;5.468;2023-01-16T13:13:27;96939.28;;;20.42
53667;BMP280;39568;51.026;5.468;2023-01-16T13:15:59;96944.75;;;20.46
53667;BMP280;39568;51.026;5.468;2023-01-16T13:18:30;96932.69;;;20.49
53667;BMP280;39568;51.026;5.468;2023-01-16T13:21:02;96931.19;;;20.42
53667;BMP280;39568;51.026;5.468;2023-01-16T13:23:32;96930.44;;;20.37
53667;BMP280;39568;51.026;5.468;2023-01-16T13:26:01;96924.94;;;20.31
53667;BMP280;39568;51.026;5.468;2023-01-16T13:28:35;96926.94;;;20.31
53667;BMP280;39568;51.026;5.468;2023-01-16T13:31:06;96915.56;;;20.36
53667;BMP280;39568;51.026;5.468;2023-01-16T13:33:36;96917.69;;;20.42
53667;BMP280;39568;51.026;5.468;2023-01-16T13:36:27;96919.16;;;20.47
53667;BMP280;39568;51.026;5.468;2023-01-16T13:39:07;96927.94;;;20.47
53667;BMP280;39568;51.026;5.468;2023-01-16T13:41:42;96926.44;;;20.40
53667;BMP280;39568;51.026;5.468;2023-01-16T13:44:14;96918.22;;;20.34
53667;BMP280;39568;51.026;5.468;2023-01-16T13:47:03;96925.63;;;20.34
53667;BMP280;39568;51.026;5.468;2023-01-16T13:49:30;96916.94;;;20.37
53667;BMP280;39568;51.026;5.468;2023-01-16T13:52:00;96925.13;;;20.41
53667;BMP280;39568;51.026;5.468;2023-01-16T13:54:35;96920.47;;;20.46
53667;BMP280;39568;51.026;5.468;2023-01-16T13:57:07;96923.22;;;20.50
53667;BMP280;39568;51.026;5.468;2023-01-16T13:59:40;96915.88;;;20.52
53667;BMP280;39568;51.026;5.468;2023-01-16T14:02:25;96921.38;;;20.56
53667;BMP280;39568;51.026;5.468;2023-01-16T14:05:20;96918.59;;;20.52
53667;BMP280;39568;51.026;5.468;2023-01-16T14:08:04;96913.75;;;20.47
53667;BMP280;39568;51.026;5.468;2023-01-16T14:11:04;96915.75;;;20.46
53667;BMP280;39568;51.026;5.468;2023-01-16T14:13:33;96911.72;;;20.47
53667;BMP280;39568;51.026;5.468;2023-01-16T14:16:29;96911.00;;;20.45
53667;BMP280;39568;51.026;5.468;2023-01-16T14:19:00;96905.53;;;20.41
53667;BMP280;39568;51.026;5.468;2023-01-16T14:21:38;96903.44;;;20.37
53667;BMP280;39568;51.026;5.468;2023-01-16T14:24:15;96911.53;;;20.37
53667;BMP280;39568;51.026;5.468;2023-01-16T14:26:44;96903.53;;;20.41
53667;BMP280;39568;51.026;5.468;2023-01-16T14:29:18;96908.34;;;20.47
53667;BMP280;39568;51.026;5.468;2023-01-16T14:31:52;96909.81;;;20.52
53667;BMP280;39568;51.026;5.468;2023-01-16T14:34:22;96910.56;;;20.58
53667;BMP280;39568;51.026;5.468;2023-01-16T14:36:51;96908.63;;;20.63
53667;BMP280;39568;51.026;5.468;2023-01-16T14:39:32;96911.44;;;20.69
53667;BMP280;39568;51.026;5.468;2023-01-16T14:42:05;96912.72;;;20.64
53667;BMP280;39568;51.026;5.468;2023-01-16T14:45:25;96909.19;;;20.55
53667;BMP280;39568;51.026;5.468;2023-01-16T14:48:36;96909.03;;;20.49
53667;BMP280;39568;51.026;5.468;2023-01-16T14:51:29;96911.75;;;20.49
53667;BMP280;39568;51.026;5.468;2023-01-16T14:54:18;96910.50;;;20.52